sensor_id;sensor_type;location;lat;lon;timestamp;pressure;altitude;pressure_sealevel;temperature;humidity
41062;BME280;26812;42.662;23.352;2023-03-14T00:02:01;95134.41;;;4.79;48.21
41062;BME280;26812;42.662;23.352;2023-03-14T00:04:27;95121.41;;;4.57;49.02
41062;BME280;26812;42.662;23.352;2023-03-14T00:06:52;95122.13;;;4.78;46.50
41062;BME280;26812;42.662;23.352;2023-03-14T00:09:17;95114.63;;;4.80;45.18
41062;BME280;26812;42.662;23.352;2023-03-14T00:11:43;95072.88;;;4.50;45.25
41062;BME280;26812;42.662;23.352;2023-03-14T00:14:09;95112.38;;;5.03;44.86
41062;BME280;26812;42.662;23.352;2023-03-14T00:16:34;95094.94;;;5.15;45.22
41062;BME280;26812;42.662;23.352;2023-03-14T00:19:00;95072.38;;;4.48;46.91
41062;BME280;26812;42.662;23.352;2023-03-14T00:21:25;95079.63;;;4.92;45.40
41062;BME280;26812;42.662;23.352;2023-03-14T00:23:51;95103.75;;;5.16;45.95
41062;BME280;26812;42.662;23.352;2023-03-14T00:26:18;95078.81;;;4.91;46.55
41062;BME280;26812;42.662;23.352;2023-03-14T00:28:44;95091.13;;;5.26;45.84
41062;BME280;26812;42.662;23.352;2023-03-14T00:31:13;95077.75;;;4.87;46.59
41062;BME280;26812;42.662;23.352;2023-03-14T00:33:38;95054.53;;;4.88;46.27
41062;BME280;26812;42.662;23.352;2023-03-14T00:36:15;95058.19;;;5.02;46.17
41062;BME280;26812;42.662;23.352;2023-03-14T00:38:42;95064.69;;;4.86;46.84
41062;BME280;26812;42.662;23.352;2023-03-14T00:41:10;95070.81;;;4.91;46.97
41062;BME280;26812;42.662;23.352;2023-03-14T00:43:37;95068.50;;;4.75;47.68
41062;BME280;26812;42.662;23.352;2023-03-14T00:46:03;95057.03;;;4.74;47.64
41062;BME280;26812;42.662;23.352;2023-03-14T00:48:29;95064.09;;;4.99;46.64
41062;BME280;26812;42.662;23.352;2023-03-14T00:50:55;95062.75;;;4.96;47.28
41062;BME280;26812;42.662;23.352;2023-03-14T00:53:20;95056.84;;;4.55;48.38
41062;BME280;26812;42.662;23.352;2023-03-14T00:55:46;95067.91;;;4.33;48.91
41062;BME280;26812;42.662;23.352;2023-03-14T00:58:13;95064.16;;;4.40;49.21
41062;BME280;26812;42.662;23.352;2023-03-14T01:00:39;95065.53;;;4.22;50.00
41062;BME280;26812;42.662;23.352;2023-03-14T01:03:05;95058.38;;;4.17;50.35
41062;BME280;26812;42.662;23.352;2023-03-14T01:05:30;95054.44;;;3.99;51.60
41062;BME280;26812;42.662;23.352;2023-03-14T01:07:56;95033.81;;;4.20;51.83
41062;BME280;26812;42.662;23.352;2023-03-14T01:10:22;95050.63;;;4.21;51.11
41062;BME280;26812;42.662;23.352;2023-03-14T01:12:48;95031.78;;;3.92;51.34
41062;BME280;26812;42.662;23.352;2023-03-14T01:15:13;95059.31;;;4.47;50.76
41062;BME280;26812;42.662;23.352;2023-03-14T01:17:39;95057.06;;;4.10;51.58
41062;BME280;26812;42.662;23.352;2023-03-14T01:20:05;95038.44;;;3.94;52.38
41062;BME280;26812;42.662;23.352;2023-03-14T01:22:35;95042.09;;;4.19;52.50
41062;BME280;26812;42.662;23.352;2023-03-14T01:25:00;95035.75;;;4.04;52.08
41062;BME280;26812;42.662;23.352;2023-03-14T01:27:26;95006.28;;;3.60;52.84
41062;BME280;26812;42.662;23.352;2023-03-14T01:29:51;95020.13;;;3.62;53.06
41062;BME280;26812;42.662;23.352;2023-03-14T01:32:16;95011.94;;;3.43;53.72
41062;BME280;26812;42.662;23.352;2023-03-14T01:34:42;95035.13;;;3.38;54.19
41062;BME280;26812;42.662;23.352;2023-03-14T01:37:07;95010.91;;;2.99;55.56
41062;BME280;26812;42.662;23.352;2023-03-14T01:39:33;95029.25;;;3.05;55.64
41062;BME280;26812;42.662;23.352;2023-03-14T01:42:00;94976.84;;;2.96;55.21
41062;BME280;26812;42.662;23.352;2023-03-14T01:44:25;95024.97;;;3.45;54.96
41062;BME280;26812;42.662;23.352;2023-03-14T01:46:51;95020.41;;;3.61;54.20
41062;BME280;26812;42.662;23.352;2023-03-14T01:49:31;95017.78;;;3.30;55.37
41062;BME280;26812;42.662;23.352;2023-03-14T01:52:02;95015.44;;;3.08;56.19
41062;BME280;26812;42.662;23.352;2023-03-14T01:54:59;94973.09;;;2.56;56.89
41062;BME280;26812;42.662;23.352;2023-03-14T01:57:31;95014.63;;;2.77;56.48
41062;BME280;26812;42.662;23.352;2023-03-14T02:02:44;95021.00;;;2.92;58.03
41062;BME280;26812;42.662;23.352;2023-03-14T02:05:12;95016.47;;;3.33;56.93
41062;BME280;26812;42.662;23.352;2023-03-14T02:07:49;95021.53;;;3.29;56.28
41062;BME280;26812;42.662;23.352;2023-03-14T02:10:17;95010.91;;;3.14;56.97
41062;BME280;26812;42.662;23.352;2023-03-14T02:12:47;95008.50;;;2.82;57.25
41062;BME280;26812;42.662;23.352;2023-03-14T02:15:14;95007.69;;;2.66;58.25
41062;BME280;26812;42.662;23.352;2023-03-14T02:17:44;95002.63;;;2.49;59.15
41062;BME280;26812;42.662;23.352;2023-03-14T02:22:45;94996.81;;;2.83;58.08
41062;BME280;26812;42.662;23.352;2023-03-14T02:25:25;95009.03;;;2.99;58.42
41062;BME280;26812;42.662;23.352;2023-03-14T02:27:53;94974.16;;;2.70;58.72
41062;BME280;26812;42.662;23.352;2023-03-14T02:30:27;95007.44;;;2.88;58.74
41062;BME280;26812;42.662;23.352;2023-03-14T02:33:10;94989.06;;;2.97;58.92
41062;BME280;26812;42.662;23.352;2023-03-14T02:35:40;95005.59;;;3.14;58.43
41062;BME280;26812;42.662;23.352;2023-03-14T02:38:50;95011.41;;;3.31;58.13
41062;BME280;26812;42.662;23.352;2023-03-14T02:41:18;94999.19;;;2.90;58.78
41062;BME280;26812;42.662;23.352;2023-03-14T02:43:43;95009.03;;;3.15;58.71
41062;BME280;26812;42.662;23.352;2023-03-14T02:46:12;95017.56;;;3.17;56.78
41062;BME280;26812;42.662;23.352;2023-03-14T02:48:52;95006.63;;;2.62;58.02
41062;BME280;26812;42.662;23.352;2023-03-14T02:51:19;95024.84;;;2.13;59.82
41062;BME280;26812;42.662;23.352;2023-03-14T02:53:45;94997.69;;;1.96;59.58
41062;BME280;26812;42.662;23.352;2023-03-14T02:56:10;95021.97;;;2.25;59.54
41062;BME280;26812;42.662;23.352;2023-03-14T02:58:36;95018.53;;;2.39;59.00
41062;BME280;26812;42.662;23.352;2023-03-14T03:01:02;95026.03;;;2.53;58.60
41062;BME280;26812;42.662;23.352;2023-03-14T03:03:27;95028.97;;;2.56;58.46
41062;BME280;26812;42.662;23.352;2023-03-14T03:05:55;95013.00;;;2.51;58.79
41062;BME280;26812;42.662;23.352;2023-03-14T03:08:22;94981.56;;;2.28;59.18
41062;BME280;26812;42.662;23.352;2023-03-14T03:10:48;95022.53;;;2.32;59.97
41062;BME280;26812;42.662;23.352;2023-03-14T03:13:15;95007.91;;;2.34;59.88
41062;BME280;26812;42.662;23.352;2023-03-14T03:15:40;95015.41;;;2.68;59.69
41062;BME280;26812;42.662;23.352;2023-03-14T03:18:06;95007.72;;;2.76;58.10
41062;BME280;26812;42.662;23.352;2023-03-14T03:20:32;94978.69;;;2.49;57.86
41062;BME280;26812;42.662;23.352;2023-03-14T03:22:58;95007.16;;;2.64;59.04
41062;BME280;26812;42.662;23.352;2023-03-14T03:25:24;94999.19;;;2.79;58.45
41062;BME280;26812;42.662;23.352;2023-03-14T03:27:49;94995.22;;;2.87;59.06
41062;BME280;26812;42.662;23.352;2023-03-14T03:30:15;95020.47;;;3.25;58.54
41062;BME280;26812;42.662;23.352;2023-03-14T03:32:41;95010.09;;;2.98;57.86
41062;BME280;26812;42.662;23.352;2023-03-14T03:35:07;95009.81;;;3.00;57.87
41062;BME280;26812;42.662;23.352;2023-03-14T03:37:33;95022.06;;;3.41;56.42
41062;BME280;26812;42.662;23.352;2023-03-14T03:39:59;95024.47;;;3.38;56.45
41062;BME280;26812;42.662;23.352;2023-03-14T03:42:27;95016.50;;;3.13;57.59
41062;BME280;26812;42.662;23.352;2023-03-14T03:44:52;95011.44;;;2.91;58.25
41062;BME280;26812;42.662;23.352;2023-03-14T03:47:18;95020.47;;;2.74;59.04
41062;BME280;26812;42.662;23.352;2023-03-14T03:49:43;95006.09;;;2.45;58.96
41062;BME280;26812;42.662;23.352;2023-03-14T03:52:09;95020.44;;;2.64;58.72
41062;BME280;26812;42.662;23.352;2023-03-14T03:54:34;95023.66;;;2.66;58.56
41062;BME280;26812;42.662;23.352;2023-03-14T03:57:00;95012.19;;;2.45;58.93
41062;BME280;26812;42.662;23.352;2023-03-14T03:59:25;95010.81;;;2.33;59.30
41062;BME280;26812;42.662;23.352;2023-03-14T04:01:51;95026.78;;;2.33;59.87
41062;BME280;26812;42.662;23.352;2023-03-14T04:04:16;95016.63;;;2.14;60.47
41062;BME280;26812;42.662;23.352;2023-03-14T04:06:42;95017.50;;;2.45;58.92
41062;BME280;26812;42.662;23.352;2023-03-14T04:09:11;95027.63;;;2.54;58.57
41062;BME280;26812;42.662;23.352;2023-03-14T04:11:36;95021.25;;;2.70;57.32
41062;BME280;26812;42.662;23.352;2023-03-14T04:14:03;95015.66;;;2.56;57.88
41062;BME280;26812;42.662;23.352;2023-03-14T04:16:28;95024.38;;;2.31;59.07
41062;BME280;26812;42.662;23.352;2023-03-14T04:18:56;95011.34;;;2.30;59.61
41062;BME280;26812;42.662;23.352;2023-03-14T04:21:22;95013.00;;;2.71;58.60
41062;BME280;26812;42.662;23.352;2023-03-14T04:23:47;94986.66;;;2.49;58.76
41062;BME280;26812;42.662;23.352;2023-03-14T04:26:12;95001.53;;;2.40;58.24
41062;BME280;26812;42.662;23.352;2023-03-14T04:28:38;94991.66;;;2.26;58.48
41062;BME280;26812;42.662;23.352;2023-03-14T04:31:15;94994.59;;;2.19;59.44
41062;BME280;26812;42.662;23.352;2023-03-14T04:33:41;94992.97;;;2.18;59.89
41062;BME280;26812;42.662;23.352;2023-03-14T04:36:07;94991.88;;;2.09;59.90
41062;BME280;26812;42.662;23.352;2023-03-14T04:38:33;94987.06;;;2.01;60.85
41062;BME280;26812;42.662;23.352;2023-03-14T04:40:59;94990.88;;;2.25;60.23
41062;BME280;26812;42.662;23.352;2023-03-14T04:43:25;94975.19;;;2.24;60.28
41062;BME280;26812;42.662;23.352;2023-03-14T04:45:52;94983.75;;;2.46;59.84
41062;BME280;26812;42.662;23.352;2023-03-14T04:48:18;94984.81;;;2.55;59.07
41062;BME280;26812;42.662;23.352;2023-03-14T04:50:43;94977.84;;;2.34;59.55
41062;BME280;26812;42.662;23.352;2023-03-14T04:53:16;94971.50;;;2.45;60.00
41062;BME280;26812;42.662;23.352;2023-03-14T04:55:42;94964.88;;;2.78;58.55
41062;BME280;26812;42.662;23.352;2023-03-14T04:58:08;94984.31;;;2.78;58.38
41062;BME280;26812;42.662;23.352;2023-03-14T05:00:33;94973.09;;;2.61;59.39
41062;BME280;26812;42.662;23.352;2023-03-14T05:02:59;94963.22;;;2.41;60.48
41062;BME280;26812;42.662;23.352;2023-03-14T05:05:24;94969.06;;;2.28;60.59
41062;BME280;26812;42.662;23.352;2023-03-14T05:07:49;94973.31;;;2.24;60.63
41062;BME280;26812;42.662;23.352;2023-03-14T05:10:15;94964.28;;;2.20;61.45
41062;BME280;26812;42.662;23.352;2023-03-14T05:12:41;94953.16;;;2.54;61.13
41062;BME280;26812;42.662;23.352;2023-03-14T05:15:07;94978.44;;;2.76;60.37
41062;BME280;26812;42.662;23.352;2023-03-14T05:17:33;94964.31;;;2.56;59.39
41062;BME280;26812;42.662;23.352;2023-03-14T05:19:58;94949.97;;;2.67;59.91
41062;BME280;26812;42.662;23.352;2023-03-14T05:22:24;94979.22;;;2.67;60.22
41062;BME280;26812;42.662;23.352;2023-03-14T05:24:49;94954.47;;;2.71;60.20
41062;BME280;26812;42.662;23.352;2023-03-14T05:27:14;94959.56;;;2.83;59.90
41062;BME280;26812;42.662;23.352;2023-03-14T05:29:40;94947.03;;;2.89;60.03
41062;BME280;26812;42.662;23.352;2023-03-14T05:32:05;94942.50;;;2.94;59.11
41062;BME280;26812;42.662;23.352;2023-03-14T05:34:31;94957.94;;;3.13;58.79
41062;BME280;26812;42.662;23.352;2023-03-14T05:36:56;94966.19;;;3.11;59.03
41062;BME280;26812;42.662;23.352;2023-03-14T05:39:22;94971.22;;;3.18;60.25
41062;BME280;26812;42.662;23.352;2023-03-14T05:41:47;94924.63;;;3.25;58.97
41062;BME280;26812;42.662;23.352;2023-03-14T05:44:13;94930.63;;;3.61;57.53
41062;BME280;26812;42.662;23.352;2023-03-14T05:46:38;94931.63;;;3.81;57.56
41062;BME280;26812;42.662;23.352;2023-03-14T05:49:04;94932.78;;;3.54;57.64
41062;BME280;26812;42.662;23.352;2023-03-14T05:51:29;94938.56;;;3.82;57.87
41062;BME280;26812;42.662;23.352;2023-03-14T05:53:54;94938.19;;;4.03;57.27
41062;BME280;26812;42.662;23.352;2023-03-14T05:56:20;94957.50;;;4.68;57.28
41062;BME280;26812;42.662;23.352;2023-03-14T05:58:45;94959.47;;;6.59;52.80
41062;BME280;26812;42.662;23.352;2023-03-14T06:01:11;94963.88;;;10.09;46.36
41062;BME280;26812;42.662;23.352;2023-03-14T06:03:36;94953.03;;;13.08;36.85
41062;BME280;26812;42.662;23.352;2023-03-14T06:06:02;94962.72;;;14.81;32.37
41062;BME280;26812;42.662;23.352;2023-03-14T06:08:27;94963.66;;;16.95;29.28
41062;BME280;26812;42.662;23.352;2023-03-14T06:10:54;94962.47;;;18.35;26.33
41062;BME280;26812;42.662;23.352;2023-03-14T06:13:20;94962.47;;;19.11;24.20
41062;BME280;26812;42.662;23.352;2023-03-14T06:15:46;94917.09;;;16.30;25.07
41062;BME280;26812;42.662;23.352;2023-03-14T06:18:11;94944.13;;;15.36;27.26
41062;BME280;26812;42.662;23.352;2023-03-14T06:20:38;94950.44;;;14.59;27.79
41062;BME280;26812;42.662;23.352;2023-03-14T06:23:06;94962.97;;;13.70;29.02
41062;BME280;26812;42.662;23.352;2023-03-14T06:25:39;94943.38;;;13.40;30.10
41062;BME280;26812;42.662;23.352;2023-03-14T06:28:04;94959.72;;;14.46;28.25
41062;BME280;26812;42.662;23.352;2023-03-14T06:30:30;94946.56;;;16.28;25.48
41062;BME280;26812;42.662;23.352;2023-03-14T06:32:55;94957.59;;;15.60;26.43
41062;BME280;26812;42.662;23.352;2023-03-14T06:35:22;94959.56;;;16.86;25.39
41062;BME280;26812;42.662;23.352;2023-03-14T06:37:48;94931.03;;;17.34;24.26
41062;BME280;26812;42.662;23.352;2023-03-14T06:40:13;94969.63;;;18.43;23.53
41062;BME280;26812;42.662;23.352;2023-03-14T06:42:43;94960.66;;;18.92;22.46
41062;BME280;26812;42.662;23.352;2023-03-14T06:45:09;94946.38;;;18.76;22.48
41062;BME280;26812;42.662;23.352;2023-03-14T06:47:35;94950.97;;;20.32;20.86
41062;BME280;26812;42.662;23.352;2023-03-14T06:50:00;94927.59;;;20.93;19.93
41062;BME280;26812;42.662;23.352;2023-03-14T06:52:26;94943.59;;;21.64;19.00
41062;BME280;26812;42.662;23.352;2023-03-14T06:54:51;94926.13;;;22.08;18.51
41062;BME280;26812;42.662;23.352;2023-03-14T06:57:16;94914.75;;;22.84;17.98
41062;BME280;26812;42.662;23.352;2023-03-14T06:59:42;94935.94;;;23.05;17.79
41062;BME280;26812;42.662;23.352;2023-03-14T07:02:10;94923.97;;;24.34;16.63
41062;BME280;26812;42.662;23.352;2023-03-14T07:04:37;94912.41;;;22.47;17.58
41062;BME280;26812;42.662;23.352;2023-03-14T07:07:02;94902.78;;;23.58;16.99
41062;BME280;26812;42.662;23.352;2023-03-14T07:09:27;94911.53;;;24.08;16.78
41062;BME280;26812;42.662;23.352;2023-03-14T07:11:53;94918.06;;;24.36;16.03
41062;BME280;26812;42.662;23.352;2023-03-14T07:14:18;94915.75;;;24.75;16.17
41062;BME280;26812;42.662;23.352;2023-03-14T07:16:44;94913.47;;;24.11;16.22
41062;BME280;26812;42.662;23.352;2023-03-14T07:19:12;94901.81;;;24.52;15.87
41062;BME280;26812;42.662;23.352;2023-03-14T07:21:38;94907.94;;;25.15;15.31
41062;BME280;26812;42.662;23.352;2023-03-14T07:24:04;94919.69;;;23.46;16.08
41062;BME280;26812;42.662;23.352;2023-03-14T07:26:30;94916.22;;;18.95;19.97
41062;BME280;26812;42.662;23.352;2023-03-14T07:28:55;94907.41;;;19.69;20.75
41062;BME280;26812;42.662;23.352;2023-03-14T07:31:21;94896.66;;;21.87;18.83
41062;BME280;26812;42.662;23.352;2023-03-14T07:33:46;94884.31;;;25.14;15.83
41062;BME280;26812;42.662;23.352;2023-03-14T07:36:12;94892.94;;;26.38;14.81
41062;BME280;26812;42.662;23.352;2023-03-14T07:38:37;94894.31;;;27.60;13.79
41062;BME280;26812;42.662;23.352;2023-03-14T07:41:05;94894.81;;;27.74;13.25
41062;BME280;26812;42.662;23.352;2023-03-14T07:43:31;94889.91;;;27.42;13.54
41062;BME280;26812;42.662;23.352;2023-03-14T07:45:57;94870.88;;;26.81;13.80
41062;BME280;26812;42.662;23.352;2023-03-14T07:48:22;94869.75;;;28.34;13.14
41062;BME280;26812;42.662;23.352;2023-03-14T07:50:50;94887.88;;;28.87;12.40
41062;BME280;26812;42.662;23.352;2023-03-14T07:53:16;94889.56;;;29.14;12.39
41062;BME280;26812;42.662;23.352;2023-03-14T07:55:42;94875.06;;;30.06;11.96
41062;BME280;26812;42.662;23.352;2023-03-14T07:58:07;94864.66;;;31.30;10.97
41062;BME280;26812;42.662;23.352;2023-03-14T08:00:33;94869.31;;;31.76;10.37
41062;BME280;26812;42.662;23.352;2023-03-14T08:02:58;94885.06;;;32.72;9.89
41062;BME280;26812;42.662;23.352;2023-03-14T08:05:24;94871.56;;;33.48;9.41
41062;BME280;26812;42.662;23.352;2023-03-14T08:07:49;94881.78;;;33.32;9.11
41062;BME280;26812;42.662;23.352;2023-03-14T08:10:15;94861.25;;;32.31;9.49
41062;BME280;26812;42.662;23.352;2023-03-14T08:12:50;94866.72;;;28.44;11.68
41062;BME280;26812;42.662;23.352;2023-03-14T08:15:16;94869.91;;;24.03;15.06
41062;BME280;26812;42.662;23.352;2023-03-14T08:17:42;94860.78;;;23.58;15.81
41062;BME280;26812;42.662;23.352;2023-03-14T08:20:08;94854.66;;;23.07;17.03
41062;BME280;26812;42.662;23.352;2023-03-14T08:22:36;94859.03;;;24.82;14.87
41062;BME280;26812;42.662;23.352;2023-03-14T08:25:01;94866.94;;;24.76;14.51
41062;BME280;26812;42.662;23.352;2023-03-14T08:27:27;94852.59;;;24.58;15.12
41062;BME280;26812;42.662;23.352;2023-03-14T08:29:52;94863.22;;;24.56;14.94
41062;BME280;26812;42.662;23.352;2023-03-14T08:32:18;94856.28;;;24.82;14.47
41062;BME280;26812;42.662;23.352;2023-03-14T08:34:45;94840.06;;;25.25;14.43
41062;BME280;26812;42.662;23.352;2023-03-14T08:37:10;94849.16;;;26.60;13.53
41062;BME280;26812;42.662;23.352;2023-03-14T08:39:36;94836.19;;;27.60;12.98
41062;BME280;26812;42.662;23.352;2023-03-14T08:42:02;94850.94;;;28.09;12.35
41062;BME280;26812;42.662;23.352;2023-03-14T08:44:27;94848.06;;;27.96;12.54
41062;BME280;26812;42.662;23.352;2023-03-14T08:46:52;94834.56;;;27.42;12.57
41062;BME280;26812;42.662;23.352;2023-03-14T08:49:18;94830.56;;;27.07;12.96
41062;BME280;26812;42.662;23.352;2023-03-14T08:51:43;94807.78;;;27.39;12.58
41062;BME280;26812;42.662;23.352;2023-03-14T08:54:12;94825.78;;;27.67;12.36
41062;BME280;26812;42.662;23.352;2023-03-14T08:56:37;94805.41;;;24.07;14.36
41062;BME280;26812;42.662;23.352;2023-03-14T08:59:11;94800.38;;;20.80;17.21
41062;BME280;26812;42.662;23.352;2023-03-14T09:01:50;94804.31;;;18.09;21.10
41062;BME280;26812;42.662;23.352;2023-03-14T09:04:15;94806.31;;;19.72;19.41
41062;BME280;26812;42.662;23.352;2023-03-14T09:06:41;94794.28;;;21.19;17.95
41062;BME280;26812;42.662;23.352;2023-03-14T09:11:32;94801.38;;;21.30;17.77
41062;BME280;26812;42.662;23.352;2023-03-14T09:13:58;94791.13;;;22.98;16.12
41062;BME280;26812;42.662;23.352;2023-03-14T09:16:23;94781.72;;;23.69;15.20
41062;BME280;26812;42.662;23.352;2023-03-14T09:18:49;94781.78;;;22.71;15.79
41062;BME280;26812;42.662;23.352;2023-03-14T09:21:14;94765.88;;;23.21;15.52
41062;BME280;26812;42.662;23.352;2023-03-14T09:23:41;94770.28;;;23.74;15.73
41062;BME280;26812;42.662;23.352;2023-03-14T09:26:07;94775.16;;;24.04;15.70
41062;BME280;26812;42.662;23.352;2023-03-14T09:28:32;94766.47;;;23.57;16.22
41062;BME280;26812;42.662;23.352;2023-03-14T09:31:08;94757.50;;;23.42;16.65
41062;BME280;26812;42.662;23.352;2023-03-14T09:33:34;94732.50;;;22.17;17.25
41062;BME280;26812;42.662;23.352;2023-03-14T09:36:00;94735.97;;;21.15;17.48
41062;BME280;26812;42.662;23.352;2023-03-14T09:38:26;94745.19;;;20.64;18.33
41062;BME280;26812;42.662;23.352;2023-03-14T09:40:52;94734.66;;;20.69;17.52
41062;BME280;26812;42.662;23.352;2023-03-14T09:43:18;94724.66;;;21.41;17.80
41062;BME280;26812;42.662;23.352;2023-03-14T09:45:47;94702.34;;;22.10;16.86
41062;BME280;26812;42.662;23.352;2023-03-14T09:48:22;94686.81;;;22.84;16.70
41062;BME280;26812;42.662;23.352;2023-03-14T09:50:54;94719.81;;;23.43;15.50
41062;BME280;26812;42.662;23.352;2023-03-14T09:53:26;94695.72;;;23.02;15.71
41062;BME280;26812;42.662;23.352;2023-03-14T09:55:53;94717.00;;;23.50;16.10
41062;BME280;26812;42.662;23.352;2023-03-14T09:58:22;94702.56;;;23.91;15.29
41062;BME280;26812;42.662;23.352;2023-03-14T10:00:54;94707.53;;;24.44;14.70
41062;BME280;26812;42.662;23.352;2023-03-14T10:03:29;94681.75;;;24.31;14.91
41062;BME280;26812;42.662;23.352;2023-03-14T10:05:56;94684.72;;;24.43;14.89
41062;BME280;26812;42.662;23.352;2023-03-14T10:08:22;94673.81;;;24.36;15.05
41062;BME280;26812;42.662;23.352;2023-03-14T10:10:47;94679.38;;;23.92;15.86
41062;BME280;26812;42.662;23.352;2023-03-14T10:13:24;94675.88;;;23.36;16.24
41062;BME280;26812;42.662;23.352;2023-03-14T10:16:05;94667.09;;;23.00;16.85
41062;BME280;26812;42.662;23.352;2023-03-14T10:18:33;94677.00;;;22.83;17.04
41062;BME280;26812;42.662;23.352;2023-03-14T10:21:27;94671.31;;;22.31;17.78
41062;BME280;26812;42.662;23.352;2023-03-14T10:23:53;94651.91;;;22.81;17.20
41062;BME280;26812;42.662;23.352;2023-03-14T10:26:27;94652.47;;;22.40;17.90
41062;BME280;26812;42.662;23.352;2023-03-14T10:29:02;94613.66;;;22.35;18.48
41062;BME280;26812;42.662;23.352;2023-03-14T10:31:46;94629.44;;;22.02;18.13
41062;BME280;26812;42.662;23.352;2023-03-14T10:34:16;94635.34;;;21.86;18.93
41062;BME280;26812;42.662;23.352;2023-03-14T10:36:42;94614.22;;;21.80;18.52
41062;BME280;26812;42.662;23.352;2023-03-14T10:39:30;94607.34;;;22.45;18.25
41062;BME280;26812;42.662;23.352;2023-03-14T10:44:42;94595.09;;;22.67;18.28
41062;BME280;26812;42.662;23.352;2023-03-14T10:47:16;94596.53;;;22.13;18.62
41062;BME280;26812;42.662;23.352;2023-03-14T10:49:43;94584.34;;;22.03;18.79
41062;BME280;26812;42.662;23.352;2023-03-14T10:54:33;94566.53;;;21.27;20.26
41062;BME280;26812;42.662;23.352;2023-03-14T10:57:00;94569.16;;;21.88;19.25
41062;BME280;26812;42.662;23.352;2023-03-14T10:59:35;94523.09;;;20.94;19.93
41062;BME280;26812;42.662;23.352;2023-03-14T11:02:40;94549.88;;;19.92;21.80
41062;BME280;26812;42.662;23.352;2023-03-14T11:07:55;94527.19;;;19.84;22.25
41062;BME280;26812;42.662;23.352;2023-03-14T11:10:32;94537.50;;;20.34;20.72
41062;BME280;26812;42.662;23.352;2023-03-14T11:13:05;94525.44;;;21.06;20.11
41062;BME280;26812;42.662;23.352;2023-03-14T11:15:41;94508.56;;;21.39;20.11
41062;BME280;26812;42.662;23.352;2023-03-14T11:28:50;94481.53;;;18.61;23.05
41062;BME280;26812;42.662;23.352;2023-03-14T11:31:31;94443.47;;;19.51;22.66
41062;BME280;26812;42.662;23.352;2023-03-14T11:34:40;94454.25;;;20.35;20.60
41062;BME280;26812;42.662;23.352;2023-03-14T11:37:21;94456.59;;;20.26;20.94
41062;BME280;26812;42.662;23.352;2023-03-14T11:40:22;94440.97;;;20.48;20.45
41062;BME280;26812;42.662;23.352;2023-03-14T11:43:24;94454.66;;;20.40;21.11
41062;BME280;26812;42.662;23.352;2023-03-14T11:45:58;94445.59;;;21.32;19.91
41062;BME280;26812;42.662;23.352;2023-03-14T11:51:35;94428.00;;;22.03;19.45
41062;BME280;26812;42.662;23.352;2023-03-14T11:54:17;94432.78;;;22.54;19.13
41062;BME280;26812;42.662;23.352;2023-03-14T11:56:50;94431.13;;;21.07;20.36
41062;BME280;26812;42.662;23.352;2023-03-14T11:59:26;94399.63;;;21.65;19.34
41062;BME280;26812;42.662;23.352;2023-03-14T12:07:32;94408.53;;;20.67;20.06
41062;BME280;26812;42.662;23.352;2023-03-14T12:10:02;94388.84;;;21.22;19.58
41062;BME280;26812;42.662;23.352;2023-03-14T12:12:29;94379.53;;;21.89;18.79
41062;BME280;26812;42.662;23.352;2023-03-14T12:14:57;94390.06;;;21.94;19.23
41062;BME280;26812;42.662;23.352;2023-03-14T12:20:01;94365.75;;;22.07;19.08
41062;BME280;26812;42.662;23.352;2023-03-14T12:22:32;94355.13;;;22.13;18.60
41062;BME280;26812;42.662;23.352;2023-03-14T12:25:03;94362.22;;;21.99;18.92
41062;BME280;26812;42.662;23.352;2023-03-14T12:27:49;94360.34;;;21.05;20.12
41062;BME280;26812;42.662;23.352;2023-03-14T12:32:42;94338.25;;;21.52;19.24
41062;BME280;26812;42.662;23.352;2023-03-14T12:38:03;94338.63;;;21.54;19.08
41062;BME280;26812;42.662;23.352;2023-03-14T12:40:32;94331.72;;;21.90;19.25
41062;BME280;26812;42.662;23.352;2023-03-14T12:43:01;94316.41;;;21.96;18.45
41062;BME280;26812;42.662;23.352;2023-03-14T12:45:35;94323.63;;;21.73;19.00
41062;BME280;26812;42.662;23.352;2023-03-14T12:50:47;94315.03;;;20.87;19.04
41062;BME280;26812;42.662;23.352;2023-03-14T13:00:58;94306.69;;;21.12;19.25
41062;BME280;26812;42.662;23.352;2023-03-14T13:03:26;94280.47;;;21.21;19.51
41062;BME280;26812;42.662;23.352;2023-03-14T13:06:03;94274.09;;;21.42;19.54
41062;BME280;26812;42.662;23.352;2023-03-14T13:08:43;94296.19;;;21.73;19.23
41062;BME280;26812;42.662;23.352;2023-03-14T13:11:15;94287.38;;;21.99;18.36
41062;BME280;26812;42.662;23.352;2023-03-14T13:13:47;94274.09;;;21.97;19.19
41062;BME280;26812;42.662;23.352;2023-03-14T13:16:17;94275.19;;;22.11;19.20
41062;BME280;26812;42.662;23.352;2023-03-14T13:18:46;94250.16;;;22.05;18.41
41062;BME280;26812;42.662;23.352;2023-03-14T13:21:17;94257.72;;;21.87;18.50
41062;BME280;26812;42.662;23.352;2023-03-14T13:24:21;94253.34;;;21.45;18.72
41062;BME280;26812;42.662;23.352;2023-03-14T13:26:47;94258.50;;;20.23;19.19
41062;BME280;26812;42.662;23.352;2023-03-14T13:29:21;94226.47;;;20.24;19.48
41062;BME280;26812;42.662;23.352;2023-03-14T13:31:49;94237.66;;;20.68;19.21
41062;BME280;26812;42.662;23.352;2023-03-14T13:34:16;94248.28;;;20.38;19.28
41062;BME280;26812;42.662;23.352;2023-03-14T13:36:42;94229.50;;;18.90;20.46
41062;BME280;26812;42.662;23.352;2023-03-14T13:39:17;94201.50;;;19.50;20.31
41062;BME280;26812;42.662;23.352;2023-03-14T13:41:43;94222.19;;;19.51;19.86
41062;BME280;26812;42.662;23.352;2023-03-14T13:44:15;94223.72;;;19.10;20.24
41062;BME280;26812;42.662;23.352;2023-03-14T13:46:41;94211.66;;;19.46;20.48
41062;BME280;26812;42.662;23.352;2023-03-14T13:49:11;94199.94;;;19.89;20.00
41062;BME280;26812;42.662;23.352;2023-03-14T13:51:39;94198.31;;;20.27;20.27
41062;BME280;26812;42.662;23.352;2023-03-14T13:54:16;94205.41;;;19.89;20.31
41062;BME280;26812;42.662;23.352;2023-03-14T13:56:42;94198.78;;;19.82;20.04